Terminal Aerodrome Forecast
Issued by NWS Missoula, MT

Home | Current Version | Previous Version | Text Only | Print | Product List | Glossary On
Versions: 1 2 3 4 5 6 7 8 9 10 11 12 13 14 15 16 17 18 19
000
FTUS45 KMSO 301126
TAFMSO
TAF
KMSO 301126Z 3012/3112 33009KT P6SM VCSH BKN080
     FM302000 28014G28KT P6SM -SHRA VCTS SCT050CB OVC060
     FM302300 30018G28KT P6SM -SHRA BKN050 BKN080
     FM310200 28008KT 6SM FU OVC050=

USA.gov is the U.S. government's official web portal to all federal, state and local government web resources and services.